Time;durP1;ratioP1;P1;durP2;ratioP2;P2;SDS_P1;SDS_P2;PMS_P1;PMS_P2;Temp;Humidity;BMP_temperature;BMP_pressure;BME280_temperature;BME280_humidity;BME280_pressure;Samples;Min_cycle;Max_cycle;Signal;HPM_P1;HPM_P2
2024/03/18 00:00:03;;;;;;;;;;;;;;;17.54;45.42;100835.47;5018085;28;1918;-43
2024/03/18 00:02:38;;;;;;;;;;;;;;;16.39;48.11;100841.97;5024132;28;1040;-42
2024/03/18 00:05:04;;;;;;;;;;;;;;;15.94;49.11;100845.88;5035663;28;1159;-46
2024/03/18 00:07:30;;;;;;;;;;;;;;;15.71;49.18;100839.50;5035965;28;944;-42
2024/03/18 00:09:56;;;;;;;;;;;;;;;15.49;49.75;100840.94;5035468;28;1139;-42
2024/03/18 00:12:22;;;;;;;;;;;;;;;15.28;50.42;100849.38;5035302;28;1159;-47
2024/03/18 00:14:48;;;;;;;;;;;;;;;16.81;47.43;100840.78;5035447;28;1155;-43
2024/03/18 00:17:14;;;;;;;;;;;;;;;17.66;45.17;100832.84;5035833;28;1119;-42
2024/03/18 00:19:40;;;;;;;;;;;;;;;16.61;47.41;100835.13;5034892;28;1902;-44
2024/03/18 00:22:05;;;;;;;;;;;;;;;16.00;48.49;100826.06;5037693;28;1099;-44
2024/03/18 00:24:31;;;;;;;;;;;;;;;15.74;49.58;100829.53;5038908;28;1115;-44
2024/03/18 00:26:57;;;;;;;;;;;;;;;15.56;49.91;100823.69;5039277;28;1085;-45
2024/03/18 00:29:23;;;;;;;;;;;;;;;15.36;50.15;100831.16;5039600;28;1175;-44
2024/03/18 00:31:48;;;;;;;;;;;;;;;16.27;48.60;100830.38;5038873;28;964;-45
2024/03/18 00:34:14;;;;;;;;;;;;;;;17.44;45.75;100822.03;5038491;28;1083;-45
2024/03/18 00:36:40;;;;;;;;;;;;;;;16.63;47.08;100825.25;5038954;28;1258;-45
2024/03/18 00:39:06;;;;;;;;;;;;;;;16.04;48.50;100824.91;5038651;28;1902;-46
2024/03/18 00:41:45;;;;;;;;;;;;;;;15.77;49.30;100817.84;5039163;28;1254;-46
2024/03/18 00:44:11;;;;;;;;;;;;;;;15.49;49.98;100814.44;5038179;28;1068;-46
2024/03/18 00:46:37;;;;;;;;;;;;;;;15.33;50.25;100809.31;5038917;28;1104;-48
2024/03/18 00:49:04;;;;;;;;;;;;;;;16.05;49.23;100809.84;5038882;28;1060;-46
2024/03/18 00:51:30;;;;;;;;;;;;;;;17.27;46.10;100802.03;5038909;28;1227;-44
2024/03/18 00:53:55;;;;;;;;;;;;;;;17.19;45.81;100805.25;5038432;28;1060;-42
2024/03/18 00:56:21;;;;;;;;;;;;;;;16.36;47.92;100805.00;5038240;28;924;-45
2024/03/18 00:58:46;;;;;;;;;;;;;;;15.93;48.82;100801.75;5038295;28;1894;-44
2024/03/18 01:01:12;;;;;;;;;;;;;;;15.64;49.65;100800.16;5038621;28;1103;-44
2024/03/18 01:03:38;;;;;;;;;;;;;;;15.47;49.87;100803.06;5038295;28;1451;-40
2024/03/18 01:06:03;;;;;;;;;;;;;;;15.74;49.65;100788.88;5038502;28;1119;-45
2024/03/18 01:08:29;;;;;;;;;;;;;;;17.17;46.32;100793.88;5037802;28;1082;-39
2024/03/18 01:10:55;;;;;;;;;;;;;;;17.27;45.58;100791.38;5038835;28;1080;-42
2024/03/18 01:13:21;;;;;;;;;;;;;;;16.39;47.96;100789.72;5037873;28;1385;-42
2024/03/18 01:15:47;;;;;;;;;;;;;;;15.99;48.74;100785.44;5038444;28;1146;-41
2024/03/18 01:18:13;;;;;;;;;;;;;;;15.66;49.33;100774.34;5038634;28;1110;-40
2024/03/18 01:20:38;;;;;;;;;;;;;;;15.54;49.47;100775.19;5037717;28;1971;-45
2024/03/18 01:23:04;;;;;;;;;;;;;;;15.79;49.78;100765.56;5038248;28;1183;-43
2024/03/18 01:25:33;;;;;;;;;;;;;;;17.22;46.06;100764.28;5037884;28;1079;-40
2024/03/18 01:27:58;;;;;;;;;;;;;;;17.17;45.93;100763.78;5038110;28;1174;-43
2024/03/18 01:30:24;;;;;;;;;;;;;;;16.36;47.85;100760.72;5037883;28;1051;-43
2024/03/18 01:32:49;;;;;;;;;;;;;;;15.94;49.01;100755.69;5036780;28;1084;-45
2024/03/18 01:35:15;;;;;;;;;;;;;;;15.65;49.64;100756.75;5037865;28;1163;-45
2024/03/18 01:37:41;;;;;;;;;;;;;;;15.51;49.79;100749.75;5037948;28;1203;-41
2024/03/18 01:40:10;;;;;;;;;;;;;;;15.72;49.79;100751.88;5037569;28;1918;-45
2024/03/18 01:42:36;;;;;;;;;;;;;;;17.16;46.23;100740.84;5037681;28;1087;-46
2024/03/18 01:45:03;;;;;;;;;;;;;;;17.12;45.95;100748.19;5037246;28;987;-43
2024/03/18 01:47:28;;;;;;;;;;;;;;;16.25;48.08;100744.69;5037462;28;1099;-40
2024/03/18 01:49:54;;;;;;;;;;;;;;;15.92;48.93;100733.69;5037497;28;1060;-41
2024/03/18 01:52:20;;;;;;;;;;;;;;;15.63;49.58;100731.31;5037372;28;1079;-44
2024/03/18 01:54:47;;;;;;;;;;;;;;;15.45;49.60;100731.59;5037227;28;1091;-47
2024/03/18 01:57:12;;;;;;;;;;;;;;;16.14;48.58;100732.22;5037072;28;1051;-44
2024/03/18 01:59:38;;;;;;;;;;;;;;;17.40;45.75;100727.47;5037217;28;1910;-42
2024/03/18 02:02:04;;;;;;;;;;;;;;;17.05;46.12;100734.47;5037008;28;1063;-45
2024/03/18 02:04:30;;;;;;;;;;;;;;;16.25;47.84;100724.31;5037105;28;1016;-45
2024/03/18 02:06:56;;;;;;;;;;;;;;;15.89;48.87;100725.97;5037069;28;1111;-44
2024/03/18 02:09:24;;;;;;;;;;;;;;;15.71;49.45;100730.75;5036999;28;957;-45
2024/03/18 02:11:50;;;;;;;;;;;;;;;15.45;49.83;100723.66;5037131;28;1083;-45
2024/03/18 02:14:17;;;;;;;;;;;;;;;15.60;49.87;100724.38;5037676;28;1144;-43
2024/03/18 02:16:42;;;;;;;;;;;;;;;17.06;46.39;100724.72;5036943;28;1168;-45
2024/03/18 02:19:09;;;;;;;;;;;;;;;17.31;45.40;100715.75;5037164;28;1984;-48
2024/03/18 02:21:34;;;;;;;;;;;;;;;16.38;47.56;100711.00;5036593;28;1040;-42
2024/03/18 02:24:02;;;;;;;;;;;;;;;15.96;48.83;100711.31;5037113;28;1080;-43
2024/03/18 02:26:30;;;;;;;;;;;;;;;15.68;49.49;100707.97;5036665;28;1064;-42
2024/03/18 02:28:55;;;;;;;;;;;;;;;15.50;49.74;100712.72;5037118;28;1067;-43
2024/03/18 02:31:21;;;;;;;;;;;;;;;15.36;49.75;100709.25;5037088;28;1160;-41
2024/03/18 02:33:47;;;;;;;;;;;;;;;16.79;47.02;100709.88;5036718;28;915;-47
2024/03/18 02:36:12;;;;;;;;;;;;;;;17.66;44.92;100713.13;5036530;28;1072;-45
2024/03/18 02:38:38;;;;;;;;;;;;;;;16.71;47.06;100703.34;5036559;28;1056;-44
2024/03/18 02:41:03;;;;;;;;;;;;;;;16.10;48.16;100710.34;5023838;28;1910;-45
2024/03/18 02:43:29;;;;;;;;;;;;;;;15.83;48.91;100710.50;5036779;28;1092;-46
2024/03/18 02:45:55;;;;;;;;;;;;;;;15.51;49.63;100707.34;5036100;28;930;-42
2024/03/18 02:48:22;;;;;;;;;;;;;;;16.18;48.65;100711.63;5036225;28;1071;-45
2024/03/18 02:50:48;;;;;;;;;;;;;;;17.45;45.41;100703.22;5036231;28;1076;-44
2024/03/18 02:53:14;;;;;;;;;;;;;;;16.98;46.18;100698.72;5036563;28;1047;-42
2024/03/18 02:55:39;;;;;;;;;;;;;;;16.24;48.07;100698.75;5036287;28;1146;-40
2024/03/18 02:58:05;;;;;;;;;;;;;;;15.85;48.80;100706.75;5036270;28;978;-46
2024/03/18 03:00:31;;;;;;;;;;;;;;;15.69;49.15;100706.13;5036219;28;1971;-44
2024/03/18 03:02:57;;;;;;;;;;;;;;;15.49;49.84;100703.06;5036376;28;1171;-41
2024/03/18 03:05:22;;;;;;;;;;;;;;;15.47;50.17;100705.84;5036053;28;1142;-44
2024/03/18 03:07:48;;;;;;;;;;;;;;;16.96;46.56;100705.97;5036204;28;1138;-42
2024/03/18 03:10:14;;;;;;;;;;;;;;;17.61;44.83;100701.03;5036508;28;1035;-41
2024/03/18 03:12:39;;;;;;;;;;;;;;;16.52;47.19;100695.88;5036128;28;1110;-42
2024/03/18 03:15:05;;;;;;;;;;;;;;;16.08;48.53;100693.69;5036366;28;1259;-41
2024/03/18 03:17:31;;;;;;;;;;;;;;;15.74;49.12;100698.72;5035725;28;1158;-43
2024/03/18 03:19:56;;;;;;;;;;;;;;;15.51;49.58;100686.13;5035906;28;1914;-45
2024/03/18 03:22:22;;;;;;;;;;;;;;;15.33;49.72;100690.03;5018809;28;1175;-43
2024/03/18 03:24:48;;;;;;;;;;;;;;;16.51;47.82;100695.03;5036018;28;1142;-44
2024/03/18 03:27:14;;;;;;;;;;;;;;;17.57;45.17;100685.41;5035977;28;1159;-46
2024/03/18 03:29:40;;;;;;;;;;;;;;;16.64;46.77;100684.34;5035886;28;1175;-43
2024/03/18 03:32:06;;;;;;;;;;;;;;;16.15;48.06;100689.63;5035700;28;1119;-42
2024/03/18 03:34:31;;;;;;;;;;;;;;;15.80;49.13;100692.97;5035798;28;1072;-40
2024/03/18 03:36:57;;;;;;;;;;;;;;;15.59;49.23;100687.38;5035678;28;1017;-44
2024/03/18 03:39:24;;;;;;;;;;;;;;;15.98;49.11;100687.34;5035734;28;1906;-42
2024/03/18 03:41:49;;;;;;;;;;;;;;;17.33;45.62;100684.56;5018996;28;1059;-42
2024/03/18 03:44:15;;;;;;;;;;;;;;;16.72;46.87;100688.22;5035412;28;1158;-41
2024/03/18 03:46:41;;;;;;;;;;;;;;;16.10;48.17;100680.34;5035912;28;1071;-44
2024/03/18 03:49:07;;;;;;;;;;;;;;;15.82;49.05;100690.22;5035373;28;1214;-42
2024/03/18 03:51:32;;;;;;;;;;;;;;;15.54;49.59;100690.34;5035907;28;1060;-44
2024/03/18 03:53:58;;;;;;;;;;;;;;;15.40;49.66;100681.56;5035995;28;1064;-44
2024/03/18 03:56:24;;;;;;;;;;;;;;;16.44;47.74;100688.47;5036820;28;1130;-43
2024/03/18 03:58:51;;;;;;;;;;;;;;;17.55;44.99;100682.88;5021557;28;1971;-39
2024/03/18 04:01:18;;;;;;;;;;;;;;;16.52;47.13;100680.78;5039771;28;1222;-42
2024/03/18 04:03:43;;;;;;;;;;;;;;;15.94;48.64;100685.84;5039692;28;1091;-46
2024/03/18 04:06:10;;;;;;;;;;;;;;;15.74;48.83;100677.50;5039824;28;1079;-44
2024/03/18 04:08:36;;;;;;;;;;;;;;;15.54;49.38;100680.59;5039003;28;1177;-47
2024/03/18 04:11:01;;;;;;;;;;;;;;;15.48;49.65;100681.00;5039812;28;1147;-45
2024/03/18 04:13:28;;;;;;;;;;;;;;;16.96;46.43;100674.94;5039477;28;1056;-42
2024/03/18 04:15:54;;;;;;;;;;;;;;;17.32;45.45;100674.91;5045431;28;1365;-43
2024/03/18 04:18:20;;;;;;;;;;;;;;;16.37;47.46;100679.25;5039585;28;1131;-44
2024/03/18 04:20:45;;;;;;;;;;;;;;;15.93;48.43;100677.06;5020831;28;1977;-45
2024/03/18 04:23:11;;;;;;;;;;;;;;;15.67;49.22;100679.72;5033760;28;1329;-42
2024/03/18 04:25:37;;;;;;;;;;;;;;;15.50;49.67;100680.91;5039930;28;1355;-47
2024/03/18 04:28:02;;;;;;;;;;;;;;;15.48;49.71;100673.06;5037122;28;1067;-46
2024/03/18 04:30:28;;;;;;;;;;;;;;;16.96;46.43;100679.38;5038513;28;1345;-46
2024/03/18 04:32:54;;;;;;;;;;;;;;;17.24;45.55;100674.63;5038377;28;1325;-44
2024/03/18 04:35:20;;;;;;;;;;;;;;;16.37;47.66;100688.09;5023783;28;2594;-47
2024/03/18 04:37:46;;;;;;;;;;;;;;;15.98;48.34;100679.38;5038545;28;1020;-47
2024/03/18 04:40:15;;;;;;;;;;;;;;;15.67;49.16;100687.69;5038838;28;1906;-45
2024/03/18 04:42:41;;;;;;;;;;;;;;;15.47;49.56;100681.97;5038598;28;1087;-45
2024/03/18 04:45:07;;;;;;;;;;;;;;;15.82;49.10;100685.75;5038585;28;1088;-46
2024/03/18 04:47:36;;;;;;;;;;;;;;;17.21;45.92;100681.06;5039255;28;1004;-46
2024/03/18 04:50:03;;;;;;;;;;;;;;;16.88;46.44;100691.44;5070950;28;1032;-43
2024/03/18 04:52:28;;;;;;;;;;;;;;;16.18;48.06;100693.91;5038072;28;1115;-47
2024/03/18 04:54:54;;;;;;;;;;;;;;;15.87;48.64;100690.72;5038716;28;1036;-47
2024/03/18 04:57:20;;;;;;;;;;;;;;;15.63;49.09;100688.88;5038357;28;1107;-47
2024/03/18 04:59:45;;;;;;;;;;;;;;;15.43;49.57;100688.47;5038103;28;1902;-50
2024/03/18 05:02:11;;;;;;;;;;;;;;;16.45;47.72;100692.81;5037273;28;1071;-45
2024/03/18 05:04:36;;;;;;;;;;;;;;;17.50;45.37;100695.69;5037034;28;1048;-47
2024/03/18 05:07:02;;;;;;;;;;;;;;;16.76;46.43;100695.88;5035689;28;2789;-44
2024/03/18 05:09:28;;;;;;;;;;;;;;;16.20;47.95;100693.78;5037561;28;1028;-45
2024/03/18 05:11:53;;;;;;;;;;;;;;;17.23;45.67;100699.53;5038102;28;1075;-49
2024/03/18 05:14:19;;;;;;;;;;;;;;;15.61;49.00;100696.09;5037117;28;1167;-48
2024/03/18 05:16:45;;;;;;;;;;;;;;;15.21;49.12;100702.31;5038202;28;1175;-43
2024/03/18 05:19:10;;;;;;;;;;;;;;;14.94;48.28;100693.50;5037708;28;1914;-49
2024/03/18 05:21:36;;;;;;;;;;;;;;;15.34;49.34;100687.28;5037776;28;1121;-46
2024/03/18 05:24:02;;;;;;;;;;;;;;;16.30;48.18;100686.81;5037800;28;1224;-47
2024/03/18 05:26:27;;;;;;;;;;;;;;;15.25;49.16;100691.41;5038105;28;1151;-45
2024/03/18 05:28:53;;;;;;;;;;;;;;;16.67;48.01;100693.03;5037855;28;1120;-46
2024/03/18 05:31:18;;;;;;;;;;;;;;;15.83;48.88;100697.22;5037814;28;1045;-46
2024/03/18 05:33:44;;;;;;;;;;;;;;;16.39;49.01;100698.59;5037860;28;1075;-48
2024/03/18 05:36:10;;;;;;;;;;;;;;;17.34;46.10;100691.59;5034999;28;2375;-46
2024/03/18 05:38:35;;;;;;;;;;;;;;;15.94;48.34;100693.81;5028958;28;1040;-48
2024/03/18 05:41:01;;;;;;;;;;;;;;;15.34;48.59;100697.03;5037779;28;1906;-48
2024/03/18 05:43:26;;;;;;;;;;;;;;;15.27;47.96;100689.50;5037243;28;1258;-52
2024/03/18 05:45:52;;;;;;;;;;;;;;;15.04;47.50;100683.97;5037827;28;1125;-44
2024/03/18 05:48:17;;;;;;;;;;;;;;;15.71;48.62;100688.31;5037914;28;1060;-47
2024/03/18 05:50:43;;;;;;;;;;;;;;;17.24;47.02;100687.94;5037301;28;1053;-44
2024/03/18 05:53:08;;;;;;;;;;;;;;;15.86;48.87;100686.41;5037477;28;1040;-42
2024/03/18 05:55:34;;;;;;;;;;;;;;;15.33;48.90;100682.91;5037423;28;1159;-45
2024/03/18 05:58:03;;;;;;;;;;;;;;;15.17;48.04;100680.47;5037286;28;1172;-47
2024/03/18 06:00:31;;;;;;;;;;;;;;;15.43;49.38;100684.00;5037224;28;1905;-46
2024/03/18 06:02:56;;;;;;;;;;;;;;;16.56;48.05;100680.56;5036891;28;1121;-47
2024/03/18 06:05:22;;;;;;;;;;;;;;;15.53;48.97;100689.50;5037179;28;1051;-48
2024/03/18 06:07:48;;;;;;;;;;;;;;;15.23;48.26;100681.88;5037302;28;1079;-47
2024/03/18 06:10:16;;;;;;;;;;;;;;;15.70;49.74;100684.00;5037085;28;882;-48
2024/03/18 06:12:41;;;;;;;;;;;;;;;16.36;48.37;100677.56;5036906;28;1091;-44
2024/03/18 06:15:08;;;;;;;;;;;;;;;15.45;48.95;100677.75;5037170;28;1092;-46
2024/03/18 06:17:33;;;;;;;;;;;;;;;15.50;49.74;100686.19;5036812;28;1115;-45
2024/03/18 06:19:59;;;;;;;;;;;;;;;17.00;47.25;100679.03;5036727;28;1902;-47
2024/03/18 06:22:26;;;;;;;;;;;;;;;15.70;49.12;100676.03;5036895;28;1242;-45
2024/03/18 06:27:36;;;;;;;;;;;;;;;15.07;48.25;100667.00;5036514;28;1083;-47
2024/03/18 06:30:02;;;;;;;;;;;;;;;14.85;47.91;100671.09;5036737;28;1167;-47
2024/03/18 06:32:28;;;;;;;;;;;;;;;16.63;48.67;100674.69;5036953;28;1167;-48
2024/03/18 06:34:54;;;;;;;;;;;;;;;15.86;48.61;100673.13;5036473;28;1054;-48
2024/03/18 06:37:19;;;;;;;;;;;;;;;15.33;48.48;100669.66;5037064;28;1127;-46
2024/03/18 06:39:45;;;;;;;;;;;;;;;15.15;48.17;100671.78;5036979;28;1961;-48
2024/03/18 06:42:11;;;;;;;;;;;;;;;16.73;48.33;100679.31;5036641;28;1099;-47
2024/03/18 06:44:42;;;;;;;;;;;;;;;16.06;48.70;100670.88;5036541;28;1091;-47
2024/03/18 06:47:09;;;;;;;;;;;;;;;15.82;50.05;100674.28;5036302;28;1099;-48
2024/03/18 06:49:37;;;;;;;;;;;;;;;17.04;47.40;100670.81;5036610;28;1142;-48
2024/03/18 06:52:03;;;;;;;;;;;;;;;15.70;48.85;100676.84;5036499;28;1064;-45
2024/03/18 06:54:29;;;;;;;;;;;;;;;15.41;48.34;100685.06;5036298;28;1131;-44
2024/03/18 06:56:54;;;;;;;;;;;;;;;15.24;47.80;100684.41;5036592;28;1131;-48
2024/03/18 06:59:20;;;;;;;;;;;;;;;15.05;47.06;100683.00;5035952;28;1914;-48
2024/03/18 07:01:45;;;;;;;;;;;;;;;14.91;46.99;100688.41;5023325;28;1152;-50
2024/03/18 07:04:11;;;;;;;;;;;;;;;15.53;48.34;100692.16;5036395;28;1004;-52
2024/03/18 07:06:36;;;;;;;;;;;;;;;16.51;47.90;100687.06;5036405;28;1120;-49
2024/03/18 07:09:02;;;;;;;;;;;;;;;15.62;50.33;100682.72;5036376;28;1060;-45
2024/03/18 07:11:28;;;;;;;;;;;;;;;17.48;47.10;100684.34;5035802;28;1104;-45
2024/03/18 07:13:53;;;;;;;;;;;;;;;16.56;48.51;100669.94;5036277;28;1025;-45
2024/03/18 07:16:21;;;;;;;;;;;;;;;15.75;48.79;100674.72;5036118;28;1044;-47
2024/03/18 07:18:46;;;;;;;;;;;;;;;15.46;48.24;100675.00;5036253;28;1142;-46
2024/03/18 07:21:13;;;;;;;;;;;;;;;15.16;47.72;100670.84;5036010;28;1985;-42
2024/03/18 07:23:39;;;;;;;;;;;;;;;15.07;47.25;100667.00;5035988;28;858;-46
2024/03/18 07:26:05;;;;;;;;;;;;;;;16.70;48.28;100667.09;5035926;28;1092;-45
2024/03/18 07:28:33;;;;;;;;;;;;;;;15.92;48.70;100656.78;5032340;28;1044;-47
2024/03/18 07:30:59;;;;;;;;;;;;;;;15.38;48.31;100661.41;5031859;28;1079;-47
2024/03/18 07:33:25;;;;;;;;;;;;;;;15.22;47.63;100659.81;5040250;28;1071;-48
2024/03/18 07:35:51;;;;;;;;;;;;;;;16.28;48.55;100657.75;5039274;28;1205;-44
2024/03/18 07:38:17;;;;;;;;;;;;;;;15.45;48.59;100645.94;5040257;28;1087;-51
2024/03/18 07:40:42;;;;;;;;;;;;;;;15.17;48.01;100636.28;5040208;28;1906;-49
2024/03/18 07:43:11;;;;;;;;;;;;;;;15.02;48.37;100637.31;5040104;28;1137;-44
2024/03/18 07:45:37;;;;;;;;;;;;;;;16.45;47.74;100639.72;5039934;28;1162;-48
2024/03/18 07:48:04;;;;;;;;;;;;;;;15.39;48.64;100640.09;5039699;28;1052;-47
2024/03/18 07:50:36;;;;;;;;;;;;;;;15.06;48.27;100637.00;5039642;28;1110;-47
2024/03/18 07:53:02;;;;;;;;;;;;;;;15.18;48.71;100631.84;5039744;28;1092;-44
2024/03/18 07:55:27;;;;;;;;;;;;;;;16.91;47.12;100628.41;5040022;28;1080;-48
2024/03/18 07:57:53;;;;;;;;;;;;;;;15.53;48.56;100623.22;5039743;28;1143;-47
2024/03/18 08:00:19;;;;;;;;;;;;;;;15.18;48.42;100631.84;5039391;28;1906;-45
2024/03/18 08:02:45;;;;;;;;;;;;;;;15.42;49.15;100629.28;5054778;28;1584;-45
2024/03/18 08:05:11;;;;;;;;;;;;;;;16.93;46.93;100624.69;5039543;28;1222;-47
2024/03/18 08:07:37;;;;;;;;;;;;;;;15.64;48.82;100629.56;5039095;28;1107;-48
2024/03/18 08:10:03;;;;;;;;;;;;;;;15.30;47.93;100620.38;5039931;28;1143;-48
2024/03/18 08:12:28;;;;;;;;;;;;;;;16.02;48.83;100622.50;5039281;28;962;-45
2024/03/18 08:14:54;;;;;;;;;;;;;;;15.50;48.41;100615.47;5039470;28;1090;-48
2024/03/18 08:17:20;;;;;;;;;;;;;;;15.23;47.69;100612.97;5038822;28;1163;-49
2024/03/18 08:19:46;;;;;;;;;;;;;;;16.65;47.41;100622.28;5039492;28;1897;-47
2024/03/18 08:22:16;;;;;;;;;;;;;;;15.58;48.23;100612.28;5039243;28;1207;-47
2024/03/18 08:24:43;;;;;;;;;;;;;;;15.23;47.92;100621.75;5032813;28;1016;-46
2024/03/18 08:27:09;;;;;;;;;;;;;;;17.05;46.87;100614.06;5038821;28;1122;-49
2024/03/18 08:29:35;;;;;;;;;;;;;;;15.72;48.24;100619.25;5038979;28;1056;-50
2024/03/18 08:32:01;;;;;;;;;;;;;;;15.25;48.57;100614.56;5039080;28;1052;-45
2024/03/18 08:34:26;;;;;;;;;;;;;;;16.83;47.17;100602.44;5038740;28;1067;-49
2024/03/18 08:36:52;;;;;;;;;;;;;;;16.29;47.91;100602.84;5038664;28;1298;-44
2024/03/18 08:39:18;;;;;;;;;;;;;;;15.53;48.45;100591.41;5038701;28;1902;-48
2024/03/18 08:41:46;;;;;;;;;;;;;;;15.30;47.70;100606.28;5032772;28;1462;-47
2024/03/18 08:44:11;;;;;;;;;;;;;;;15.18;47.07;100595.56;5039151;28;1156;-43
2024/03/18 08:46:37;;;;;;;;;;;;;;;14.95;47.02;100601.63;5038601;28;1074;-47
2024/03/18 08:49:02;;;;;;;;;;;;;;;14.82;46.89;100591.88;5038708;28;1086;-49
2024/03/18 08:51:28;;;;;;;;;;;;;;;16.69;47.15;100595.50;5038236;28;1067;-46
2024/03/18 08:53:54;;;;;;;;;;;;;;;15.48;48.73;100598.00;5038355;28;1191;-46
2024/03/18 08:56:21;;;;;;;;;;;;;;;15.20;48.20;100581.41;5038150;28;1096;-47
2024/03/18 08:58:47;;;;;;;;;;;;;;;16.19;48.18;100581.47;5038081;28;1195;-46
2024/03/18 09:01:13;;;;;;;;;;;;;;;15.50;48.44;100583.66;5038282;28;1982;-46
2024/03/18 09:03:39;;;;;;;;;;;;;;;15.18;48.26;100582.31;5038694;28;1075;-43
2024/03/18 09:06:04;;;;;;;;;;;;;;;14.98;47.49;100582.88;5038418;28;1146;-46
2024/03/18 09:08:30;;;;;;;;;;;;;;;15.24;48.22;100574.91;5020388;28;1468;-46
2024/03/18 09:10:55;;;;;;;;;;;;;;;16.83;46.43;100563.41;5038016;28;1067;-47
2024/03/18 09:13:21;;;;;;;;;;;;;;;15.57;48.28;100572.63;5038442;28;1301;-45
2024/03/18 09:15:47;;;;;;;;;;;;;;;15.20;47.81;100574.28;5024030;28;1111;-48
2024/03/18 09:18:12;;;;;;;;;;;;;;;15.03;47.51;100562.22;5031567;28;1154;-43
2024/03/18 09:20:39;;;;;;;;;;;;;;;15.31;48.12;100576.19;5038149;28;1967;-46
2024/03/18 09:23:08;;;;;;;;;;;;;;;17.15;46.26;100564.53;5029659;28;1265;-45
2024/03/18 09:25:38;;;;;;;;;;;;;;;15.67;48.38;100576.31;5038176;28;1195;-42
2024/03/18 09:28:04;;;;;;;;;;;;;;;15.28;48.26;100573.75;5037863;28;1155;-45
2024/03/18 09:30:31;;;;;;;;;;;;;;;15.71;49.03;100564.53;5026575;28;1171;-46
2024/03/18 09:32:57;;;;;;;;;;;;;;;15.79;47.97;100554.22;5033514;28;1101;-45
2024/03/18 09:35:23;;;;;;;;;;;;;;;15.29;48.11;100563.03;5023757;28;1187;-46
2024/03/18 09:37:49;;;;;;;;;;;;;;;15.04;47.71;100562.13;5053273;28;1091;-48
2024/03/18 09:40:15;;;;;;;;;;;;;;;16.97;46.82;100557.03;5037097;28;1971;-50
2024/03/18 09:42:41;;;;;;;;;;;;;;;15.83;48.16;100551.34;5036971;28;1071;-42
2024/03/18 09:45:08;;;;;;;;;;;;;;;15.40;48.09;100537.56;5020110;28;1150;-47
2024/03/18 09:47:33;;;;;;;;;;;;;;;15.17;47.81;100548.84;5036450;28;1036;-48
2024/03/18 09:49:59;;;;;;;;;;;;;;;15.85;48.07;100547.59;5020016;28;1083;-48
2024/03/18 09:52:26;;;;;;;;;;;;;;;15.78;47.86;100533.94;5037687;28;1035;-44
2024/03/18 09:54:52;;;;;;;;;;;;;;;15.29;47.84;100551.59;5036938;28;1141;-52
2024/03/18 09:57:23;;;;;;;;;;;;;;;15.12;47.67;100550.13;5037423;28;1039;-46
2024/03/18 09:59:49;;;;;;;;;;;;;;;15.04;47.18;100548.88;5037409;28;1910;-48
2024/03/18 10:02:18;;;;;;;;;;;;;;;14.89;46.64;100540.19;5037610;28;1075;-48
2024/03/18 10:04:45;;;;;;;;;;;;;;;15.09;47.27;100545.03;5037349;28;1222;-49
2024/03/18 10:07:14;;;;;;;;;;;;;;;16.84;46.90;100546.50;5033746;28;1345;-48
2024/03/18 10:09:41;;;;;;;;;;;;;;;15.64;48.44;100534.97;5028839;28;1416;-45
2024/03/18 10:12:13;;;;;;;;;;;;;;;15.23;48.38;100530.81;5025303;28;1278;-49
2024/03/18 10:14:39;;;;;;;;;;;;;;;16.04;48.40;100511.78;5050078;28;1060;-48
2024/03/18 10:17:04;;;;;;;;;;;;;;;15.62;48.12;100525.41;5030953;28;1114;-49
2024/03/18 10:19:30;;;;;;;;;;;;;;;15.20;48.35;100528.41;5018984;28;1910;-48
2024/03/18 10:21:56;;;;;;;;;;;;;;;15.04;47.73;100525.03;5012384;28;1097;-46
2024/03/18 10:24:21;;;;;;;;;;;;;;;16.48;47.21;100524.47;5036672;28;1051;-47
2024/03/18 10:26:48;;;;;;;;;;;;;;;15.48;48.13;100518.47;5036772;28;1068;-48
2024/03/18 10:29:14;;;;;;;;;;;;;;;15.08;48.02;100522.16;5037135;28;1107;-47
2024/03/18 10:31:39;;;;;;;;;;;;;;;14.93;47.24;100528.41;5030703;28;1365;-43
2024/03/18 10:34:08;;;;;;;;;;;;;;;16.47;47.18;100509.50;5009431;28;1084;-46
2024/03/18 10:36:36;;;;;;;;;;;;;;;16.16;47.40;100508.19;5036645;28;1152;-46
2024/03/18 10:39:08;;;;;;;;;;;;;;;15.42;48.39;100495.88;5036791;28;1973;-46
2024/03/18 10:41:35;;;;;;;;;;;;;;;15.21;47.90;100498.28;5036553;28;1123;-48
2024/03/18 10:44:12;;;;;;;;;;;;;;;15.03;47.47;100501.28;5019647;28;1164;-47
2024/03/18 10:46:38;;;;;;;;;;;;;;;16.09;47.71;100492.88;5046054;28;1100;-46
2024/03/18 10:49:04;;;;;;;;;;;;;;;16.19;47.36;100488.56;5018714;28;1120;-48
2024/03/18 10:51:29;;;;;;;;;;;;;;;15.46;48.44;100481.47;5019231;28;1080;-47
2024/03/18 10:53:55;;;;;;;;;;;;;;;15.18;48.22;100478.16;5018919;28;1028;-47
2024/03/18 10:56:21;;;;;;;;;;;;;;;15.16;48.21;100482.72;5019405;28;1076;-46
2024/03/18 10:58:46;;;;;;;;;;;;;;;17.15;46.07;100482.16;5019312;28;1083;-44
2024/03/18 11:01:12;;;;;;;;;;;;;;;15.88;48.05;100466.97;5019008;28;1973;-46
2024/03/18 11:03:44;;;;;;;;;;;;;;;15.39;48.06;100467.81;5036469;28;1091;-46
2024/03/18 11:06:16;;;;;;;;;;;;;;;15.16;47.37;100467.66;5028902;28;1056;-50
2024/03/18 11:08:41;;;;;;;;;;;;;;;16.55;46.88;100461.13;5036288;28;1136;-47
2024/03/18 11:11:07;;;;;;;;;;;;;;;15.49;48.20;100467.13;5036820;28;1071;-46
2024/03/18 11:13:34;;;;;;;;;;;;;;;15.27;47.86;100458.09;5018276;28;1415;-47
2024/03/18 11:16:04;;;;;;;;;;;;;;;15.13;47.34;100453.78;5022604;28;1404;-49
2024/03/18 11:18:30;;;;;;;;;;;;;;;14.93;47.05;100454.25;5037146;28;1141;-47
2024/03/18 11:20:59;;;;;;;;;;;;;;;16.27;47.61;100451.66;5032666;28;1906;-45
2024/03/18 11:23:25;;;;;;;;;;;;;;;16.01;47.59;100441.25;5036478;28;1131;-44
2024/03/18 11:25:52;;;;;;;;;;;;;;;15.43;48.11;100448.06;5036248;28;923;-47
2024/03/18 11:28:17;;;;;;;;;;;;;;;15.17;47.70;100452.59;5036250;28;1237;-50
2024/03/18 11:30:45;;;;;;;;;;;;;;;15.91;47.85;100443.69;5036463;28;1024;-47
2024/03/18 11:33:11;;;;;;;;;;;;;;;15.23;48.20;100430.13;5036236;28;1198;-46
2024/03/18 11:35:40;;;;;;;;;;;;;;;16.51;47.17;100445.44;5036194;28;1164;-48
2024/03/18 11:38:06;;;;;;;;;;;;;;;15.77;47.93;100434.13;5018266;28;966;-48
2024/03/18 11:40:38;;;;;;;;;;;;;;;15.33;47.89;100435.59;5035372;28;1910;-45
2024/03/18 11:43:04;;;;;;;;;;;;;;;15.49;48.63;100433.53;5034691;28;1028;-48
2024/03/18 11:45:29;;;;;;;;;;;;;;;17.19;45.70;100432.25;5035287;28;1103;-48
2024/03/18 11:48:00;;;;;;;;;;;;;;;15.84;47.83;100423.91;5035778;28;1110;-47
2024/03/18 11:50:28;;;;;;;;;;;;;;;15.47;47.73;100432.78;5036488;28;1163;-47
2024/03/18 11:52:54;;;;;;;;;;;;;;;15.20;47.33;100422.41;5036058;28;1116;-49
2024/03/18 11:55:19;;;;;;;;;;;;;;;15.10;47.27;100417.75;5050936;28;1045;-49
2024/03/18 11:57:45;;;;;;;;;;;;;;;14.93;47.11;100411.88;5051385;28;1207;-49
2024/03/18 12:00:14;;;;;;;;;;;;;;;14.84;46.45;100412.53;5033514;28;1910;-47
2024/03/18 12:02:40;;;;;;;;;;;;;;;16.71;46.81;100410.31;5033851;28;1143;-48
2024/03/18 12:05:06;;;;;;;;;;;;;;;15.61;48.36;100407.06;5034977;28;1087;-47
2024/03/18 12:07:32;;;;;;;;;;;;;;;15.14;48.20;100400.69;5035331;28;1506;-49
2024/03/18 12:09:57;;;;;;;;;;;;;;;15.83;48.53;100397.50;5051319;28;1071;-48
2024/03/18 12:12:23;;;;;;;;;;;;;;;16.26;47.52;100398.69;5018358;28;1055;-46
2024/03/18 12:14:48;;;;;;;;;;;;;;;15.53;48.46;100395.22;5017864;28;1105;-47
2024/03/18 12:17:14;;;;;;;;;;;;;;;15.21;48.12;100390.50;5037250;28;1154;-49
2024/03/18 12:19:51;;;;;;;;;;;;;;;15.02;47.42;100386.53;5039727;28;1902;-50
2024/03/18 12:22:25;;;;;;;;;;;;;;;15.70;48.09;100387.78;5039860;28;1179;-46
2024/03/18 12:30:24;;;;;;;;;;;;;;;16.99;46.53;100379.72;5029849;28;1147;-45
2024/03/18 12:32:50;;;;;;;;;;;;;;;16.01;47.67;100371.41;5038761;28;1072;-45
2024/03/18 12:35:16;;;;;;;;;;;;;;;15.54;48.05;100372.19;5038681;28;1201;-45
2024/03/18 12:37:48;;;;;;;;;;;;;;;15.74;48.94;100373.34;5038667;28;1059;-47
2024/03/18 12:40:17;;;;;;;;;;;;;;;17.03;46.08;100369.69;5054728;28;1981;-46
2024/03/18 12:42:43;;;;;;;;;;;;;;;15.82;48.36;100367.47;5038926;28;1112;-44
2024/03/18 12:45:11;;;;;;;;;;;;;;;15.40;48.17;100374.06;5038862;28;1321;-47
2024/03/18 12:47:37;;;;;;;;;;;;;;;16.18;48.18;100377.22;5039207;28;1104;-46
2024/03/18 12:50:03;;;;;;;;;;;;;;;15.63;48.12;100360.91;5038614;28;1186;-47